sensor_id;sensor_type;location;lat;lon;timestamp;pressure;altitude;pressure_sealevel;temperature;humidity
50011;BME280;35899;50.352;19.390;2023-05-29T00:01:47;98006.65;;;10.86;57.22
50011;BME280;35899;50.352;19.390;2023-05-29T00:04:14;98004.05;;;10.83;57.31
50011;BME280;35899;50.352;19.390;2023-05-29T00:06:40;98000.73;;;10.78;57.46
50011;BME280;35899;50.352;19.390;2023-05-29T00:09:07;97998.65;;;10.74;57.50
50011;BME280;35899;50.352;19.390;2023-05-29T00:11:33;97997.35;;;10.70;57.71
50011;BME280;35899;50.352;19.390;2023-05-29T00:13:59;97999.81;;;10.67;57.80
50011;BME280;35899;50.352;19.390;2023-05-29T00:16:26;97998.30;;;10.64;57.99
50011;BME280;35899;50.352;19.390;2023-05-29T00:18:52;97996.95;;;10.61;57.95
50011;BME280;35899;50.352;19.390;2023-05-29T00:21:18;97995.98;;;10.57;58.17
50011;BME280;35899;50.352;19.390;2023-05-29T00:23:45;97994.36;;;10.55;58.32
50011;BME280;35899;50.352;19.390;2023-05-29T00:26:12;97991.77;;;10.53;58.15
50011;BME280;35899;50.352;19.390;2023-05-29T00:28:40;97990.24;;;10.50;58.70
50011;BME280;35899;50.352;19.390;2023-05-29T00:31:07;97986.72;;;10.46;58.61
50011;BME280;35899;50.352;19.390;2023-05-29T00:33:34;97983.41;;;10.44;59.08
50011;BME280;35899;50.352;19.390;2023-05-29T00:36:00;97987.69;;;10.42;58.93
50011;BME280;35899;50.352;19.390;2023-05-29T00:38:27;97985.20;;;10.38;59.10
50011;BME280;35899;50.352;19.390;2023-05-29T00:40:53;97986.67;;;10.34;59.20
50011;BME280;35899;50.352;19.390;2023-05-29T00:43:20;97987.25;;;10.30;59.51
50011;BME280;35899;50.352;19.390;2023-05-29T00:45:46;97988.70;;;10.27;59.50
50011;BME280;35899;50.352;19.390;2023-05-29T00:48:12;97986.17;;;10.23;59.45
50011;BME280;35899;50.352;19.390;2023-05-29T00:50:39;97993.23;;;10.18;59.92
50011;BME280;35899;50.352;19.390;2023-05-29T00:53:05;97993.36;;;10.14;59.88
50011;BME280;35899;50.352;19.390;2023-05-29T00:55:32;97989.20;;;10.11;60.17
50011;BME280;35899;50.352;19.390;2023-05-29T00:57:58;97986.44;;;10.09;60.05
50011;BME280;35899;50.352;19.390;2023-05-29T01:00:25;97986.31;;;10.05;60.24
50011;BME280;35899;50.352;19.390;2023-05-29T01:02:51;97981.50;;;10.02;60.35
50011;BME280;35899;50.352;19.390;2023-05-29T01:05:18;97980.76;;;9.98;60.34
50011;BME280;35899;50.352;19.390;2023-05-29T01:07:45;97982.04;;;9.94;60.51
50011;BME280;35899;50.352;19.390;2023-05-29T01:10:12;97981.78;;;9.90;60.55
50011;BME280;35899;50.352;19.390;2023-05-29T01:25:23;97982.48;;;9.74;61.19
50011;BME280;35899;50.352;19.390;2023-05-29T01:27:50;97979.33;;;9.72;61.50
50011;BME280;35899;50.352;19.390;2023-05-29T01:30:16;97979.27;;;9.71;61.67
50011;BME280;35899;50.352;19.390;2023-05-29T01:32:43;97974.55;;;9.69;61.56
50011;BME280;35899;50.352;19.390;2023-05-29T01:35:13;97974.88;;;9.67;61.89
50011;BME280;35899;50.352;19.390;2023-05-29T01:37:40;97968.04;;;9.66;61.79
50011;BME280;35899;50.352;19.390;2023-05-29T01:40:07;97968.27;;;9.65;61.95
50011;BME280;35899;50.352;19.390;2023-05-29T01:42:33;97964.98;;;9.62;62.14
50011;BME280;35899;50.352;19.390;2023-05-29T01:45:00;97966.08;;;9.61;62.09
50011;BME280;35899;50.352;19.390;2023-05-29T01:47:27;97964.98;;;9.60;62.34
50011;BME280;35899;50.352;19.390;2023-05-29T01:49:54;97963.52;;;9.58;62.22
50011;BME280;35899;50.352;19.390;2023-05-29T01:52:21;97963.92;;;9.57;62.53
50011;BME280;35899;50.352;19.390;2023-05-29T01:54:47;97964.05;;;9.55;62.49
50011;BME280;35899;50.352;19.390;2023-05-29T01:57:13;97962.64;;;9.53;62.64
50011;BME280;35899;50.352;19.390;2023-05-29T01:59:40;97962.33;;;9.50;62.65
50011;BME280;35899;50.352;19.390;2023-05-29T02:02:07;97960.42;;;9.47;63.04
50011;BME280;35899;50.352;19.390;2023-05-29T02:04:33;97958.54;;;9.45;63.11
50011;BME280;35899;50.352;19.390;2023-05-29T02:07:00;97962.19;;;9.42;63.17
50011;BME280;35899;50.352;19.390;2023-05-29T02:09:26;97960.61;;;9.39;63.49
50011;BME280;35899;50.352;19.390;2023-05-29T02:11:52;97958.02;;;9.36;63.22
50011;BME280;35899;50.352;19.390;2023-05-29T02:14:19;97959.40;;;9.34;63.38
50011;BME280;35899;50.352;19.390;2023-05-29T02:16:45;97961.81;;;9.31;63.63
50011;BME280;35899;50.352;19.390;2023-05-29T02:19:11;97956.95;;;9.29;63.94
50011;BME280;35899;50.352;19.390;2023-05-29T02:21:38;97959.45;;;9.28;64.07
50011;BME280;35899;50.352;19.390;2023-05-29T02:24:05;97957.59;;;9.27;64.11
50011;BME280;35899;50.352;19.390;2023-05-29T02:26:33;97958.30;;;9.27;64.16
50011;BME280;35899;50.352;19.390;2023-05-29T02:29:00;97960.14;;;9.25;64.34
50011;BME280;35899;50.352;19.390;2023-05-29T02:31:26;97959.80;;;9.22;64.10
50011;BME280;35899;50.352;19.390;2023-05-29T02:33:52;97959.81;;;9.22;64.45
50011;BME280;35899;50.352;19.390;2023-05-29T02:36:21;97957.80;;;9.21;64.46
50011;BME280;35899;50.352;19.390;2023-05-29T02:38:47;97951.30;;;9.20;64.66
50011;BME280;35899;50.352;19.390;2023-05-29T02:41:14;97951.51;;;9.19;64.46
50011;BME280;35899;50.352;19.390;2023-05-29T02:43:40;97950.67;;;9.19;64.53
50011;BME280;35899;50.352;19.390;2023-05-29T02:46:06;97950.54;;;9.18;64.61
50011;BME280;35899;50.352;19.390;2023-05-29T02:48:33;97948.60;;;9.16;64.69
50011;BME280;35899;50.352;19.390;2023-05-29T02:50:59;97946.04;;;9.16;64.88
50011;BME280;35899;50.352;19.390;2023-05-29T02:53:26;97944.12;;;9.16;65.01
50011;BME280;35899;50.352;19.390;2023-05-29T02:55:52;97939.91;;;9.17;64.96
50011;BME280;35899;50.352;19.390;2023-05-29T02:58:21;97939.45;;;9.19;65.02
50011;BME280;35899;50.352;19.390;2023-05-29T03:00:47;97939.20;;;9.20;65.22
50011;BME280;35899;50.352;19.390;2023-05-29T03:03:14;97937.39;;;9.19;65.23
50011;BME280;35899;50.352;19.390;2023-05-29T03:05:40;97934.66;;;9.21;65.44
50011;BME280;35899;50.352;19.390;2023-05-29T03:08:07;97931.48;;;9.22;65.23
50011;BME280;35899;50.352;19.390;2023-05-29T03:10:33;97934.27;;;9.25;65.33
50011;BME280;35899;50.352;19.390;2023-05-29T03:12:59;97932.23;;;9.27;65.56
50011;BME280;35899;50.352;19.390;2023-05-29T03:15:26;97927.18;;;9.27;65.31
50011;BME280;35899;50.352;19.390;2023-05-29T03:17:52;97933.52;;;9.30;65.60
50011;BME280;35899;50.352;19.390;2023-05-29T03:20:23;97935.56;;;9.33;65.56
50011;BME280;35899;50.352;19.390;2023-05-29T03:22:52;97935.87;;;9.37;65.59
50011;BME280;35899;50.352;19.390;2023-05-29T03:25:19;97937.30;;;9.42;65.80
50011;BME280;35899;50.352;19.390;2023-05-29T03:27:46;97935.27;;;9.46;65.74
50011;BME280;35899;50.352;19.390;2023-05-29T03:30:16;97937.85;;;9.52;65.50
50011;BME280;35899;50.352;19.390;2023-05-29T03:32:42;97939.67;;;9.58;65.43
50011;BME280;35899;50.352;19.390;2023-05-29T03:35:09;97939.52;;;9.63;65.52
50011;BME280;35899;50.352;19.390;2023-05-29T03:37:38;97941.04;;;9.64;65.41
50011;BME280;35899;50.352;19.390;2023-05-29T03:40:04;97935.29;;;9.70;65.51
50011;BME280;35899;50.352;19.390;2023-05-29T03:42:32;97935.04;;;9.78;65.87
50011;BME280;35899;50.352;19.390;2023-05-29T03:44:59;97936.35;;;9.87;65.51
50011;BME280;35899;50.352;19.390;2023-05-29T03:47:25;97935.08;;;9.96;65.70
50011;BME280;35899;50.352;19.390;2023-05-29T03:49:52;97934.52;;;10.05;65.74
50011;BME280;35899;50.352;19.390;2023-05-29T03:52:19;97938.79;;;10.13;65.69
50011;BME280;35899;50.352;19.390;2023-05-29T03:54:45;97941.56;;;10.23;65.67
50011;BME280;35899;50.352;19.390;2023-05-29T03:57:11;97942.77;;;10.33;65.68
50011;BME280;35899;50.352;19.390;2023-05-29T03:59:38;97938.85;;;10.40;65.86
50011;BME280;35899;50.352;19.390;2023-05-29T04:02:04;97942.43;;;10.46;66.07
50011;BME280;35899;50.352;19.390;2023-05-29T04:04:31;97943.31;;;10.56;65.87
50011;BME280;35899;50.352;19.390;2023-05-29T04:06:57;97943.61;;;10.69;65.64
50011;BME280;35899;50.352;19.390;2023-05-29T04:09:24;97941.69;;;10.79;65.82
50011;BME280;35899;50.352;19.390;2023-05-29T04:11:50;97944.08;;;10.82;65.81
50011;BME280;35899;50.352;19.390;2023-05-29T04:14:16;97944.68;;;10.85;65.63
50011;BME280;35899;50.352;19.390;2023-05-29T04:16:46;97941.70;;;10.93;65.71
50011;BME280;35899;50.352;19.390;2023-05-29T04:19:12;97943.41;;;11.04;65.81
50011;BME280;35899;50.352;19.390;2023-05-29T04:21:39;97944.27;;;11.13;66.05
50011;BME280;35899;50.352;19.390;2023-05-29T04:24:06;97943.34;;;11.21;66.08
50011;BME280;35899;50.352;19.390;2023-05-29T04:26:32;97947.50;;;11.28;66.07
50011;BME280;35899;50.352;19.390;2023-05-29T04:28:59;97950.16;;;11.37;66.41
50011;BME280;35899;50.352;19.390;2023-05-29T04:31:26;97953.56;;;11.47;66.46
50011;BME280;35899;50.352;19.390;2023-05-29T04:33:53;97954.33;;;11.56;66.71
50011;BME280;35899;50.352;19.390;2023-05-29T04:36:21;97955.02;;;11.65;67.06
50011;BME280;35899;50.352;19.390;2023-05-29T04:38:48;97957.71;;;11.73;67.10
50011;BME280;35899;50.352;19.390;2023-05-29T04:41:14;97953.20;;;11.81;67.37
50011;BME280;35899;50.352;19.390;2023-05-29T04:43:41;97951.58;;;11.89;67.51
50011;BME280;35899;50.352;19.390;2023-05-29T04:46:07;97953.60;;;11.97;67.70
50011;BME280;35899;50.352;19.390;2023-05-29T04:48:34;97954.80;;;12.03;67.80
50011;BME280;35899;50.352;19.390;2023-05-29T04:51:01;97956.65;;;12.09;67.68
50011;BME280;35899;50.352;19.390;2023-05-29T04:53:29;97954.23;;;12.16;67.49
50011;BME280;35899;50.352;19.390;2023-05-29T04:55:55;97957.23;;;12.22;67.37
50011;BME280;35899;50.352;19.390;2023-05-29T04:58:22;97961.53;;;12.29;67.07
50011;BME280;35899;50.352;19.390;2023-05-29T05:00:49;97961.98;;;12.35;66.50
50011;BME280;35899;50.352;19.390;2023-05-29T05:03:15;97962.08;;;12.43;66.19
50011;BME280;35899;50.352;19.390;2023-05-29T05:05:42;97966.17;;;12.50;66.00
50011;BME280;35899;50.352;19.390;2023-05-29T05:08:09;97971.27;;;12.56;65.64
50011;BME280;35899;50.352;19.390;2023-05-29T05:10:35;97971.54;;;12.64;65.44
50011;BME280;35899;50.352;19.390;2023-05-29T05:13:02;97972.02;;;12.69;65.24
50011;BME280;35899;50.352;19.390;2023-05-29T05:15:28;97971.14;;;12.78;65.14
50011;BME280;35899;50.352;19.390;2023-05-29T05:17:55;97975.92;;;12.83;64.32
50011;BME280;35899;50.352;19.390;2023-05-29T05:20:21;97976.50;;;12.91;64.47
50011;BME280;35899;50.352;19.390;2023-05-29T05:22:51;97973.02;;;13.02;64.50
50011;BME280;35899;50.352;19.390;2023-05-29T05:25:18;97970.36;;;13.14;64.31
50011;BME280;35899;50.352;19.390;2023-05-29T05:27:45;97969.23;;;13.26;64.02
50011;BME280;35899;50.352;19.390;2023-05-29T05:30:11;97966.64;;;13.39;63.72
50011;BME280;35899;50.352;19.390;2023-05-29T05:32:38;97966.66;;;13.52;63.61
50011;BME280;35899;50.352;19.390;2023-05-29T05:35:05;97964.52;;;13.63;63.79
50011;BME280;35899;50.352;19.390;2023-05-29T05:37:32;97965.77;;;13.78;64.13
50011;BME280;35899;50.352;19.390;2023-05-29T05:39:59;97965.46;;;13.92;64.24
50011;BME280;35899;50.352;19.390;2023-05-29T05:42:25;97968.23;;;14.06;64.01
50011;BME280;35899;50.352;19.390;2023-05-29T05:44:58;97971.30;;;14.24;63.72
50011;BME280;35899;50.352;19.390;2023-05-29T05:47:26;97972.31;;;14.39;63.01
50011;BME280;35899;50.352;19.390;2023-05-29T05:49:52;97972.35;;;14.53;62.71
50011;BME280;35899;50.352;19.390;2023-05-29T05:52:19;97971.44;;;14.66;62.28
50011;BME280;35899;50.352;19.390;2023-05-29T05:54:45;97969.42;;;14.79;62.05
50011;BME280;35899;50.352;19.390;2023-05-29T05:57:12;97973.02;;;14.94;61.77
50011;BME280;35899;50.352;19.390;2023-05-29T05:59:39;97968.92;;;15.09;61.84
50011;BME280;35899;50.352;19.390;2023-05-29T06:02:05;97969.80;;;15.25;61.63
50011;BME280;35899;50.352;19.390;2023-05-29T06:04:35;97973.06;;;15.41;61.36
50011;BME280;35899;50.352;19.390;2023-05-29T06:07:01;97975.52;;;15.58;61.24
50011;BME280;35899;50.352;19.390;2023-05-29T06:09:29;97978.06;;;15.75;61.26
50011;BME280;35899;50.352;19.390;2023-05-29T06:11:55;97978.66;;;15.89;61.38
50011;BME280;35899;50.352;19.390;2023-05-29T06:14:23;97979.38;;;16.06;61.37
50011;BME280;35899;50.352;19.390;2023-05-29T06:16:49;97984.60;;;16.24;61.46
50011;BME280;35899;50.352;19.390;2023-05-29T06:19:16;97984.31;;;16.38;61.44
50011;BME280;35899;50.352;19.390;2023-05-29T06:21:56;97983.90;;;16.52;61.28
50011;BME280;35899;50.352;19.390;2023-05-29T06:24:22;97988.83;;;16.63;60.90
50011;BME280;35899;50.352;19.390;2023-05-29T06:26:49;97990.38;;;16.74;60.89
50011;BME280;35899;50.352;19.390;2023-05-29T06:29:15;97992.77;;;16.85;60.38
50011;BME280;35899;50.352;19.390;2023-05-29T06:31:42;97992.31;;;16.95;60.21
50011;BME280;35899;50.352;19.390;2023-05-29T06:34:08;97993.86;;;17.10;60.83
50011;BME280;35899;50.352;19.390;2023-05-29T06:36:35;97995.89;;;17.25;60.46
50011;BME280;35899;50.352;19.390;2023-05-29T06:39:01;97993.70;;;17.39;60.32
50011;BME280;35899;50.352;19.390;2023-05-29T06:41:27;97994.71;;;17.51;60.07
50011;BME280;35899;50.352;19.390;2023-05-29T06:43:54;97994.79;;;17.65;59.76
50011;BME280;35899;50.352;19.390;2023-05-29T06:46:23;97998.34;;;17.79;59.41
50011;BME280;35899;50.352;19.390;2023-05-29T06:48:49;98000.69;;;17.94;59.46
50011;BME280;35899;50.352;19.390;2023-05-29T06:51:17;98001.39;;;18.07;58.93
50011;BME280;35899;50.352;19.390;2023-05-29T06:53:46;98001.77;;;18.21;58.63
50011;BME280;35899;50.352;19.390;2023-05-29T06:56:13;98001.45;;;18.27;58.15
50011;BME280;35899;50.352;19.390;2023-05-29T06:58:39;97999.73;;;18.38;58.06
50011;BME280;35899;50.352;19.390;2023-05-29T07:01:06;98002.15;;;18.50;57.94
50011;BME280;35899;50.352;19.390;2023-05-29T07:03:36;98006.05;;;18.62;57.41
50011;BME280;35899;50.352;19.390;2023-05-29T07:06:05;98012.10;;;18.74;57.53
50011;BME280;35899;50.352;19.390;2023-05-29T07:08:32;98012.92;;;18.85;57.39
50011;BME280;35899;50.352;19.390;2023-05-29T07:10:58;98014.39;;;18.97;56.97
50011;BME280;35899;50.352;19.390;2023-05-29T07:13:25;98012.98;;;19.08;57.08
50011;BME280;35899;50.352;19.390;2023-05-29T07:15:52;98018.09;;;19.22;56.67
50011;BME280;35899;50.352;19.390;2023-05-29T07:18:22;98013.23;;;19.35;56.28
50011;BME280;35899;50.352;19.390;2023-05-29T07:20:50;98016.77;;;19.50;55.75
50011;BME280;35899;50.352;19.390;2023-05-29T07:23:24;98018.69;;;19.63;56.09
50011;BME280;35899;50.352;19.390;2023-05-29T07:25:53;98017.39;;;19.79;55.76
50011;BME280;35899;50.352;19.390;2023-05-29T07:28:19;98015.77;;;19.96;55.59
50011;BME280;35899;50.352;19.390;2023-05-29T07:30:48;98016.15;;;20.12;55.28
50011;BME280;35899;50.352;19.390;2023-05-29T07:33:15;98011.73;;;20.25;54.42
50011;BME280;35899;50.352;19.390;2023-05-29T07:35:41;98013.68;;;20.41;53.79
50011;BME280;35899;50.352;19.390;2023-05-29T07:38:11;98018.20;;;20.53;53.52
50011;BME280;35899;50.352;19.390;2023-05-29T07:43:41;98017.31;;;20.79;52.54
50011;BME280;35899;50.352;19.390;2023-05-29T07:46:09;98023.48;;;20.88;51.69
50011;BME280;35899;50.352;19.390;2023-05-29T07:48:37;98020.73;;;20.94;50.81
50011;BME280;35899;50.352;19.390;2023-05-29T07:51:04;98021.08;;;20.99;50.19
50011;BME280;35899;50.352;19.390;2023-05-29T07:53:34;98026.83;;;20.96;49.52
50011;BME280;35899;50.352;19.390;2023-05-29T07:56:01;98025.70;;;20.97;49.66
50011;BME280;35899;50.352;19.390;2023-05-29T07:58:32;98026.99;;;21.02;49.75
50011;BME280;35899;50.352;19.390;2023-05-29T08:00:58;98030.80;;;21.06;49.45
50011;BME280;35899;50.352;19.390;2023-05-29T08:03:25;98035.46;;;21.05;48.56
50011;BME280;35899;50.352;19.390;2023-05-29T08:06:18;98031.21;;;21.08;48.87
50011;BME280;35899;50.352;19.390;2023-05-29T08:08:45;98031.35;;;21.15;48.93
50011;BME280;35899;50.352;19.390;2023-05-29T08:11:11;98032.92;;;21.25;48.70
50011;BME280;35899;50.352;19.390;2023-05-29T08:13:39;98029.36;;;21.30;47.93
50011;BME280;35899;50.352;19.390;2023-05-29T08:16:06;98028.67;;;21.33;47.74
50011;BME280;35899;50.352;19.390;2023-05-29T08:18:32;98028.15;;;21.34;48.03
50011;BME280;35899;50.352;19.390;2023-05-29T08:21:02;98027.05;;;21.46;48.02
50011;BME280;35899;50.352;19.390;2023-05-29T08:23:29;98028.77;;;21.56;47.51
50011;BME280;35899;50.352;19.390;2023-05-29T08:25:55;98028.60;;;21.62;47.13
50011;BME280;35899;50.352;19.390;2023-05-29T08:28:22;98032.00;;;21.69;47.44
50011;BME280;35899;50.352;19.390;2023-05-29T08:31:00;98027.29;;;21.79;47.27
50011;BME280;35899;50.352;19.390;2023-05-29T08:33:49;98032.22;;;21.89;47.50
50011;BME280;35899;50.352;19.390;2023-05-29T08:36:20;98031.65;;;21.99;47.33
50011;BME280;35899;50.352;19.390;2023-05-29T09:04:33;98021.71;;;23.55;44.12
50011;BME280;35899;50.352;19.390;2023-05-29T09:07:00;98021.66;;;23.62;43.23
50011;BME280;35899;50.352;19.390;2023-05-29T09:28:34;98018.35;;;24.96;38.57
50011;BME280;35899;50.352;19.390;2023-05-29T09:31:04;98018.46;;;24.98;39.68
50011;BME280;35899;50.352;19.390;2023-05-29T09:36:38;98022.55;;;24.95;38.60
50011;BME280;35899;50.352;19.390;2023-05-29T09:39:05;98023.16;;;25.06;38.99
50011;BME280;35899;50.352;19.390;2023-05-29T09:41:44;98025.86;;;25.24;38.88
50011;BME280;35899;50.352;19.390;2023-05-29T09:44:12;98027.62;;;25.34;38.03
50011;BME280;35899;50.352;19.390;2023-05-29T09:46:38;98025.61;;;25.46;37.73
50011;BME280;35899;50.352;19.390;2023-05-29T09:49:11;98022.41;;;25.63;38.19
50011;BME280;35899;50.352;19.390;2023-05-29T09:51:41;98020.84;;;25.78;37.89
50011;BME280;35899;50.352;19.390;2023-05-29T09:54:17;98023.48;;;25.88;38.05
50011;BME280;35899;50.352;19.390;2023-05-29T09:56:44;98027.14;;;25.99;37.86
50011;BME280;35899;50.352;19.390;2023-05-29T09:59:11;98030.29;;;26.06;37.91
50011;BME280;35899;50.352;19.390;2023-05-29T10:01:39;98029.30;;;26.31;37.94
50011;BME280;35899;50.352;19.390;2023-05-29T10:04:06;98031.77;;;26.63;37.52
50011;BME280;35899;50.352;19.390;2023-05-29T10:06:33;98026.17;;;26.94;37.17
50011;BME280;35899;50.352;19.390;2023-05-29T10:09:02;98024.41;;;27.33;36.61
50011;BME280;35899;50.352;19.390;2023-05-29T10:11:28;98020.17;;;27.72;35.76
50011;BME280;35899;50.352;19.390;2023-05-29T10:13:56;98022.48;;;28.00;34.85
50011;BME280;35899;50.352;19.390;2023-05-29T10:16:23;98023.89;;;28.25;34.19
50011;BME280;35899;50.352;19.390;2023-05-29T10:18:53;98026.19;;;28.53;34.12
50011;BME280;35899;50.352;19.390;2023-05-29T10:21:19;98025.95;;;28.81;33.09
50011;BME280;35899;50.352;19.390;2023-05-29T10:23:48;98026.14;;;29.12;33.36
50011;BME280;35899;50.352;19.390;2023-05-29T10:26:15;98028.61;;;29.49;33.08
50011;BME280;35899;50.352;19.390;2023-05-29T10:28:44;98027.89;;;29.75;31.78
50011;BME280;35899;50.352;19.390;2023-05-29T10:31:21;98027.31;;;29.99;31.61
50011;BME280;35899;50.352;19.390;2023-05-29T10:33:58;98025.41;;;30.36;31.54
50011;BME280;35899;50.352;19.390;2023-05-29T10:36:28;98025.77;;;30.64;31.00
50011;BME280;35899;50.352;19.390;2023-05-29T10:38:57;98024.39;;;30.77;30.00
50011;BME280;35899;50.352;19.390;2023-05-29T10:44:01;98021.07;;;30.26;29.47
50011;BME280;35899;50.352;19.390;2023-05-29T10:49:17;98022.16;;;30.30;29.29
50011;BME280;35899;50.352;19.390;2023-05-29T10:51:43;98020.44;;;30.82;29.76
50011;BME280;35899;50.352;19.390;2023-05-29T10:54:10;98018.61;;;31.56;29.78
50011;BME280;35899;50.352;19.390;2023-05-29T10:56:39;98015.64;;;32.22;28.85
50011;BME280;35899;50.352;19.390;2023-05-29T10:59:06;98012.98;;;32.80;28.10
50011;BME280;35899;50.352;19.390;2023-05-29T11:01:33;98013.08;;;33.28;27.08
50011;BME280;35899;50.352;19.390;2023-05-29T11:06:42;98012.49;;;34.58;25.96
50011;BME280;35899;50.352;19.390;2023-05-29T11:09:28;98012.03;;;35.26;25.38
50011;BME280;35899;50.352;19.390;2023-05-29T11:14:47;98006.55;;;36.53;23.43
50011;BME280;35899;50.352;19.390;2023-05-29T11:17:42;98004.80;;;37.11;23.53
50011;BME280;35899;50.352;19.390;2023-05-29T11:25:27;98007.11;;;38.49;21.84
50011;BME280;35899;50.352;19.390;2023-05-29T11:27:53;98006.34;;;38.84;21.42
50011;BME280;35899;50.352;19.390;2023-05-29T11:30:20;98003.91;;;38.91;20.53
50011;BME280;35899;50.352;19.390;2023-05-29T11:32:47;98004.65;;;38.88;20.87
50011;BME280;35899;50.352;19.390;2023-05-29T11:35:14;98006.96;;;39.17;20.64
50011;BME280;35899;50.352;19.390;2023-05-29T11:37:42;98006.61;;;39.30;20.72
50011;BME280;35899;50.352;19.390;2023-05-29T11:40:10;98007.02;;;39.48;20.85
50011;BME280;35899;50.352;19.390;2023-05-29T11:42:43;98005.06;;;39.69;20.83
50011;BME280;35899;50.352;19.390;2023-05-29T11:45:14;97999.17;;;40.01;20.67
50011;BME280;35899;50.352;19.390;2023-05-29T11:47:56;97999.81;;;40.42;20.50
50011;BME280;35899;50.352;19.390;2023-05-29T11:50:25;97997.23;;;40.74;19.98
50011;BME280;35899;50.352;19.390;2023-05-29T12:05:03;97990.15;;;42.47;17.99
50011;BME280;35899;50.352;19.390;2023-05-29T12:07:58;97989.09;;;42.34;17.45
50011;BME280;35899;50.352;19.390;2023-05-29T12:10:31;97987.43;;;40.30;17.20
50011;BME280;35899;50.352;19.390;2023-05-29T12:13:33;97989.16;;;39.47;17.86
50011;BME280;35899;50.352;19.390;2023-05-29T12:48:03;97968.46;;;44.70;17.04
50011;BME280;35899;50.352;19.390;2023-05-29T12:50:32;97965.36;;;44.84;16.44
50011;BME280;35899;50.352;19.390;2023-05-29T12:55:29;97961.92;;;44.37;16.10
50011;BME280;35899;50.352;19.390;2023-05-29T12:57:56;97959.17;;;44.58;15.79
50011;BME280;35899;50.352;19.390;2023-05-29T13:00:23;97954.71;;;44.76;15.85
50011;BME280;35899;50.352;19.390;2023-05-29T13:02:50;97954.39;;;45.02;15.74
50011;BME280;35899;50.352;19.390;2023-05-29T13:05:22;97951.29;;;45.35;15.63
50011;BME280;35899;50.352;19.390;2023-05-29T13:07:49;97953.55;;;45.45;14.73
50011;BME280;35899;50.352;19.390;2023-05-29T13:10:16;97951.02;;;45.36;14.54
50011;BME280;35899;50.352;19.390;2023-05-29T13:12:43;97950.45;;;45.60;14.78
50011;BME280;35899;50.352;19.390;2023-05-29T13:15:10;97948.50;;;46.15;14.26
50011;BME280;35899;50.352;19.390;2023-05-29T13:17:37;97945.02;;;46.36;14.11
50011;BME280;35899;50.352;19.390;2023-05-29T13:20:03;97943.02;;;46.57;14.04
50011;BME280;35899;50.352;19.390;2023-05-29T13:22:30;97941.85;;;46.67;14.18
50011;BME280;35899;50.352;19.390;2023-05-29T13:24:57;97940.89;;;46.72;14.08
50011;BME280;35899;50.352;19.390;2023-05-29T13:27:24;97934.30;;;46.64;13.80
50011;BME280;35899;50.352;19.390;2023-05-29T13:29:50;97935.27;;;46.38;13.80
50011;BME280;35899;50.352;19.390;2023-05-29T13:32:18;97931.17;;;46.25;13.76
50011;BME280;35899;50.352;19.390;2023-05-29T13:34:47;97927.67;;;46.28;13.75
50011;BME280;35899;50.352;19.390;2023-05-29T13:37:14;97926.64;;;46.15;13.34
50011;BME280;35899;50.352;19.390;2023-05-29T13:39:41;97928.34;;;45.83;13.96
50011;BME280;35899;50.352;19.390;2023-05-29T13:42:07;97928.43;;;45.94;14.25
50011;BME280;35899;50.352;19.390;2023-05-29T13:44:34;97922.53;;;46.19;13.77
50011;BME280;35899;50.352;19.390;2023-05-29T13:47:00;97921.35;;;46.61;13.88
50011;BME280;35899;50.352;19.390;2023-05-29T13:49:27;97920.13;;;46.53;13.87
50011;BME280;35899;50.352;19.390;2023-05-29T13:51:54;97919.05;;;45.40;14.24
50011;BME280;35899;50.352;19.390;2023-05-29T13:54:20;97916.91;;;45.32;13.97
50011;BME280;35899;50.352;19.390;2023-05-29T13:56:47;97915.66;;;45.21;13.94
50011;BME280;35899;50.352;19.390;2023-05-29T13:59:13;97913.32;;;45.32;14.02
50011;BME280;35899;50.352;19.390;2023-05-29T14:01:40;97911.84;;;45.28;13.94
50011;BME280;35899;50.352;19.390;2023-05-29T14:04:07;97913.83;;;45.58;13.84
50011;BME280;35899;50.352;19.390;2023-05-29T14:06:33;97913.75;;;46.07;13.66
50011;BME280;35899;50.352;19.390;2023-05-29T14:09:00;97907.81;;;46.29;13.83
50011;BME280;35899;50.352;19.390;2023-05-29T14:11:26;97908.56;;;46.69;13.75
50011;BME280;35899;50.352;19.390;2023-05-29T14:13:52;97910.12;;;46.87;13.78
50011;BME280;35899;50.352;19.390;2023-05-29T14:16:19;97909.48;;;47.22;13.94
50011;BME280;35899;50.352;19.390;2023-05-29T14:18:46;97907.70;;;47.60;13.78
50011;BME280;35899;50.352;19.390;2023-05-29T14:21:13;97905.55;;;47.75;13.87
50011;BME280;35899;50.352;19.390;2023-05-29T14:23:39;97899.98;;;48.04;13.49
50011;BME280;35899;50.352;19.390;2023-05-29T14:26:05;97902.17;;;47.96;13.18
50011;BME280;35899;50.352;19.390;2023-05-29T14:28:32;97899.38;;;47.85;13.16
50011;BME280;35899;50.352;19.390;2023-05-29T14:30:58;97899.96;;;47.65;12.71
50011;BME280;35899;50.352;19.390;2023-05-29T14:33:25;97898.95;;;47.42;13.03
50011;BME280;35899;50.352;19.390;2023-05-29T14:35:51;97899.99;;;47.31;12.93
50011;BME280;35899;50.352;19.390;2023-05-29T14:38:33;97899.41;;;47.13;13.29
50011;BME280;35899;50.352;19.390;2023-05-29T14:40:59;97895.96;;;46.90;13.64
50011;BME280;35899;50.352;19.390;2023-05-29T14:43:37;97895.20;;;47.28;13.73
50011;BME280;35899;50.352;19.390;2023-05-29T14:46:03;97897.47;;;47.45;13.39
50011;BME280;35899;50.352;19.390;2023-05-29T14:48:30;97895.09;;;47.14;13.02
50011;BME280;35899;50.352;19.390;2023-05-29T14:50:56;97891.88;;;45.81;13.35
50011;BME280;35899;50.352;19.390;2023-05-29T14:53:23;97886.09;;;45.56;13.34
50011;BME280;35899;50.352;19.390;2023-05-29T14:55:49;97886.86;;;45.51;13.36
50011;BME280;35899;50.352;19.390;2023-05-29T14:58:16;97889.27;;;45.61;13.91
50011;BME280;35899;50.352;19.390;2023-05-29T15:00:44;97885.08;;;46.15;14.10
50011;BME280;35899;50.352;19.390;2023-05-29T15:03:25;97885.51;;;45.76;13.50